createdAt,value
2023-01-29T00:02:22.390Z,23.40
2023-01-29T00:04:52.132Z,23.23
2023-01-29T00:07:20.467Z,23.83
2023-01-29T00:09:48.770Z,23.83
2023-01-29T00:12:16.977Z,23.10
2023-01-29T00:14:45.108Z,23.97
2023-01-29T00:17:13.478Z,23.00
2023-01-29T00:19:41.757Z,23.93
2023-01-29T00:22:11.405Z,24.30
2023-01-29T00:24:39.679Z,24.00
2023-01-29T00:27:07.864Z,23.43
2023-01-29T00:29:36.015Z,23.57
2023-01-29T00:32:04.358Z,23.87
2023-01-29T00:34:32.883Z,23.73
2023-01-29T00:37:04.982Z,24.30
2023-01-29T00:39:47.357Z,23.87
2023-01-29T00:42:33.792Z,23.07
2023-01-29T00:45:02.174Z,24.53
2023-01-29T00:47:34.390Z,23.50
2023-01-29T00:50:03.847Z,24.40
2023-01-29T00:52:32.372Z,24.87
2023-01-29T00:55:02.567Z,23.83
2023-01-29T00:57:33.881Z,24.73
2023-01-29T01:00:03.564Z,24.97
2023-01-29T01:02:49.895Z,24.13
2023-01-29T01:05:19.758Z,25.57
2023-01-29T01:07:49.264Z,25.73
2023-01-29T01:10:23.406Z,28.13
2023-01-29T01:12:55.353Z,27.13
2023-01-29T01:15:25.327Z,26.40
2023-01-29T01:17:55.157Z,27.63
2023-01-29T01:20:24.133Z,26.90
2023-01-29T01:22:54.488Z,28.30
2023-01-29T01:25:26.232Z,27.47
2023-01-29T01:27:54.816Z,26.57
2023-01-29T01:30:23.778Z,26.53
2023-01-29T01:32:52.487Z,28.13
2023-01-29T01:35:21.085Z,27.10
2023-01-29T01:37:49.346Z,26.60
2023-01-29T01:40:20.401Z,27.40
2023-01-29T01:42:51.919Z,25.37
2023-01-29T01:45:23.343Z,25.57
2023-01-29T01:47:54.988Z,26.73
2023-01-29T01:50:27.944Z,26.47
2023-01-29T01:53:02.497Z,27.83
2023-01-29T01:55:32.922Z,27.93
2023-01-29T01:58:07.699Z,27.23
2023-01-29T02:00:36.488Z,28.47
2023-01-29T02:03:23.809Z,25.37
2023-01-29T02:06:12.258Z,25.43
2023-01-29T02:09:06.754Z,26.00
2023-01-29T02:11:38.030Z,25.13
2023-01-29T02:14:08.382Z,27.13
2023-01-29T02:16:38.000Z,25.80
2023-01-29T02:19:11.514Z,24.00
2023-01-29T02:21:58.701Z,26.43
2023-01-29T02:24:49.275Z,24.90
2023-01-29T02:27:22.085Z,26.03
2023-01-29T02:30:01.511Z,24.90
2023-01-29T02:32:34.215Z,26.13
2023-01-29T02:35:29.130Z,28.53
2023-01-29T02:38:06.132Z,24.33
2023-01-29T02:40:42.069Z,27.27
2023-01-29T02:43:19.800Z,26.53
2023-01-29T02:45:55.131Z,26.20
2023-01-29T02:48:26.553Z,25.67
2023-01-29T02:50:59.951Z,27.50
2023-01-29T02:53:34.409Z,25.60
2023-01-29T02:56:10.709Z,26.20
2023-01-29T02:58:43.699Z,25.57
2023-01-29T03:01:18.663Z,24.60
2023-01-29T03:03:53.273Z,25.20
2023-01-29T03:06:26.177Z,24.77
2023-01-29T03:08:58.797Z,25.30
2023-01-29T03:11:33.090Z,23.80
2023-01-29T03:14:08.537Z,25.23
2023-01-29T03:16:43.619Z,24.70
2023-01-29T03:19:17.317Z,24.27
2023-01-29T03:21:55.345Z,25.17
2023-01-29T03:24:49.460Z,23.47
2023-01-29T03:27:39.561Z,24.80
2023-01-29T03:30:29.161Z,22.17
2023-01-29T03:33:12.488Z,23.33
2023-01-29T03:35:48.663Z,23.23
2023-01-29T03:38:17.392Z,22.97
2023-01-29T03:40:50.179Z,24.50
2023-01-29T03:43:33.467Z,24.83
2023-01-29T03:46:08.441Z,25.10
2023-01-29T03:48:41.708Z,25.93
2023-01-29T03:51:21.190Z,23.27
2023-01-29T03:53:55.040Z,25.13
2023-01-29T03:56:35.170Z,24.27
2023-01-29T03:59:12.034Z,24.53
2023-01-29T04:02:03.976Z,25.00
2023-01-29T04:04:36.870Z,25.10
2023-01-29T04:07:13.623Z,23.23
2023-01-29T04:09:47.968Z,24.63
2023-01-29T04:12:21.217Z,24.70
2023-01-29T04:14:51.332Z,23.73
2023-01-29T04:17:24.761Z,25.00
2023-01-29T04:20:07.137Z,24.33
2023-01-29T04:22:38.110Z,25.33
2023-01-29T04:25:16.226Z,25.40
2023-01-29T04:27:58.545Z,25.37
2023-01-29T04:30:36.602Z,25.07
2023-01-29T04:33:19.291Z,22.93
2023-01-29T04:36:06.343Z,25.60
2023-01-29T04:38:44.122Z,24.47
2023-01-29T04:41:20.357Z,25.50
2023-01-29T04:44:00.842Z,23.63
2023-01-29T04:46:35.700Z,24.27
2023-01-29T04:49:17.643Z,23.47
2023-01-29T04:51:53.018Z,24.47
2023-01-29T04:54:33.904Z,24.80
2023-01-29T04:57:10.743Z,23.73
2023-01-29T04:59:43.918Z,22.70
2023-01-29T05:02:14.266Z,23.77
2023-01-29T05:04:45.786Z,25.47
2023-01-29T05:07:17.268Z,24.00
2023-01-29T05:09:47.860Z,25.80
2023-01-29T05:12:17.941Z,22.93
2023-01-29T05:14:48.815Z,23.33
2023-01-29T05:17:20.064Z,27.03
2023-01-29T05:19:49.000Z,23.03
2023-01-29T05:22:22.712Z,23.57
2023-01-29T05:24:51.358Z,24.37
2023-01-29T05:27:40.937Z,23.60
2023-01-29T05:30:11.520Z,23.47
2023-01-29T05:32:39.960Z,23.67
2023-01-29T05:35:09.024Z,24.47
2023-01-29T05:37:38.923Z,23.00
2023-01-29T05:40:09.899Z,22.53
2023-01-29T05:42:38.492Z,21.80
2023-01-29T05:45:08.331Z,23.73
2023-01-29T05:47:36.799Z,22.97
2023-01-29T05:50:06.076Z,23.17
2023-01-29T05:52:34.633Z,22.47
2023-01-29T05:55:04.679Z,23.00
2023-01-29T05:57:33.058Z,24.43
2023-01-29T06:00:01.502Z,24.50
2023-01-29T06:02:31.753Z,24.13
2023-01-29T06:05:00.129Z,24.23
2023-01-29T06:07:28.405Z,23.53
2023-01-29T06:09:56.819Z,25.07
2023-01-29T06:12:27.513Z,23.83
2023-01-29T06:14:56.228Z,23.40
2023-01-29T06:17:24.644Z,24.60
2023-01-29T06:19:53.036Z,23.97
2023-01-29T06:22:21.620Z,25.37
2023-01-29T06:24:50.080Z,23.73
2023-01-29T06:27:18.456Z,22.33
2023-01-29T06:29:48.076Z,22.53
2023-01-29T06:32:16.480Z,23.63
2023-01-29T06:34:44.983Z,23.37
2023-01-29T06:37:13.259Z,23.03
2023-01-29T06:39:41.627Z,22.37
2023-01-29T06:42:11.185Z,22.27
2023-01-29T06:44:39.595Z,22.63
2023-01-29T06:47:09.277Z,23.50
2023-01-29T06:49:37.743Z,23.17
2023-01-29T06:52:06.257Z,23.17
2023-01-29T06:54:34.661Z,23.53
2023-01-29T06:57:03.011Z,24.40
2023-01-29T06:59:31.252Z,23.90
2023-01-29T07:01:59.825Z,22.77
2023-01-29T07:04:29.643Z,21.97
2023-01-29T07:06:57.973Z,23.17
2023-01-29T07:09:26.320Z,22.87
2023-01-29T07:11:54.716Z,22.40
2023-01-29T07:14:23.052Z,22.60
2023-01-29T07:16:51.347Z,23.43
2023-01-29T07:19:19.639Z,24.20
2023-01-29T07:21:50.212Z,24.33
2023-01-29T07:24:19.104Z,24.47
2023-01-29T07:26:48.023Z,23.67
2023-01-29T07:29:16.287Z,23.33
2023-01-29T07:31:45.101Z,24.53
2023-01-29T07:34:13.699Z,23.60
2023-01-29T07:36:42.330Z,24.17
2023-01-29T07:39:11.982Z,23.80
2023-01-29T07:41:40.439Z,24.47
2023-01-29T07:44:17.378Z,22.87
2023-01-29T07:46:45.710Z,23.77
2023-01-29T07:49:14.091Z,23.20
2023-01-29T07:51:42.648Z,25.20
2023-01-29T07:54:12.384Z,22.57
2023-01-29T07:56:41.065Z,23.43
2023-01-29T07:59:09.387Z,22.83
2023-01-29T08:01:37.614Z,24.23
2023-01-29T08:04:06.161Z,22.47
2023-01-29T08:06:34.506Z,23.83
2023-01-29T08:09:02.847Z,22.50
2023-01-29T08:11:32.537Z,23.47
2023-01-29T08:14:01.009Z,21.70
2023-01-29T08:16:29.443Z,22.67
2023-01-29T08:18:57.784Z,22.17
2023-01-29T08:21:26.268Z,22.40
2023-01-29T08:23:54.876Z,23.33
2023-01-29T08:26:23.428Z,23.33
2023-01-29T08:28:53.139Z,23.10
2023-01-29T08:31:21.870Z,23.77
2023-01-29T08:33:50.396Z,23.00
2023-01-29T08:36:18.621Z,22.83
2023-01-29T08:38:46.976Z,22.20
2023-01-29T08:41:15.128Z,23.60
2023-01-29T08:43:43.514Z,22.60
2023-01-29T08:46:13.416Z,21.90
2023-01-29T08:48:41.881Z,23.60
2023-01-29T08:51:10.480Z,23.50
2023-01-29T08:53:38.908Z,23.33
2023-01-29T08:56:07.780Z,23.30
2023-01-29T08:58:36.108Z,23.43
2023-01-29T09:01:09.230Z,24.43
2023-01-29T09:03:41.223Z,23.83
2023-01-29T09:06:10.483Z,23.23
2023-01-29T09:08:38.962Z,23.70
2023-01-29T09:11:07.573Z,22.63
2023-01-29T09:13:36.207Z,24.03
2023-01-29T09:16:05.288Z,24.10
2023-01-29T09:18:33.382Z,24.23
2023-01-29T09:21:03.495Z,23.47
2023-01-29T09:23:32.247Z,23.30
2023-01-29T09:26:01.005Z,22.07
2023-01-29T09:28:29.391Z,23.23
2023-01-29T09:30:57.846Z,22.33
2023-01-29T09:33:26.162Z,22.77
2023-01-29T09:35:54.271Z,21.97
2023-01-29T09:38:23.937Z,22.83
2023-01-29T09:41:00.331Z,21.87
2023-01-29T09:43:38.441Z,20.93
2023-01-29T09:46:15.194Z,22.10
2023-01-29T09:48:44.594Z,21.53
2023-01-29T09:51:22.297Z,21.80
2023-01-29T09:53:58.801Z,20.83
2023-01-29T09:56:28.998Z,20.40
2023-01-29T09:59:01.399Z,20.63
2023-01-29T10:01:36.325Z,20.57
2023-01-29T10:04:42.449Z,20.70
2023-01-29T10:07:40.584Z,20.73
2023-01-29T10:10:25.829Z,19.40
2023-01-29T10:13:07.955Z,22.03
2023-01-29T10:15:47.392Z,20.23
2023-01-29T10:18:57.067Z,20.63
2023-01-29T10:22:00.810Z,20.87
2023-01-29T10:24:38.174Z,21.03
2023-01-29T10:27:15.474Z,20.47
2023-01-29T10:29:45.608Z,20.83
2023-01-29T10:32:17.663Z,20.97
2023-01-29T10:34:51.350Z,21.53
2023-01-29T10:37:24.303Z,19.47
2023-01-29T10:39:53.021Z,21.83
2023-01-29T10:42:29.828Z,20.57
2023-01-29T10:45:09.996Z,21.13
2023-01-29T10:48:09.548Z,20.40
2023-01-29T10:50:51.790Z,20.63
2023-01-29T10:53:34.563Z,21.63
2023-01-29T10:56:22.409Z,21.40
2023-01-29T10:58:55.821Z,21.50
2023-01-29T11:01:26.728Z,20.27
2023-01-29T11:04:01.011Z,20.93
2023-01-29T11:06:32.089Z,21.50
2023-01-29T11:09:07.878Z,20.80
2023-01-29T11:11:42.468Z,22.23
2023-01-29T11:14:16.061Z,22.83
2023-01-29T11:16:46.838Z,21.83
2023-01-29T11:19:15.436Z,20.90
2023-01-29T11:21:57.714Z,21.33
2023-01-29T11:24:26.829Z,22.13
2023-01-29T11:26:58.245Z,22.27
2023-01-29T11:29:38.323Z,21.20
2023-01-29T11:32:08.611Z,22.13
2023-01-29T11:34:56.731Z,21.53
2023-01-29T11:37:32.198Z,20.10
2023-01-29T11:40:00.609Z,21.47
2023-01-29T11:42:32.627Z,22.17
2023-01-29T11:45:02.197Z,20.97
2023-01-29T11:47:31.681Z,21.17
2023-01-29T11:50:03.641Z,21.07
2023-01-29T11:52:37.886Z,21.90
2023-01-29T11:55:15.077Z,19.80
2023-01-29T11:57:47.484Z,21.23
2023-01-29T12:00:23.507Z,21.10
2023-01-29T12:02:56.423Z,20.60
2023-01-29T12:05:26.986Z,20.23
2023-01-29T12:07:57.185Z,19.23
2023-01-29T12:10:34.069Z,19.50
2023-01-29T12:13:06.668Z,20.17
2023-01-29T12:15:36.572Z,19.00
2023-01-29T12:18:14.189Z,18.43
2023-01-29T12:20:47.428Z,18.93
2023-01-29T12:23:28.446Z,17.90
2023-01-29T12:26:02.778Z,19.37
2023-01-29T12:28:42.300Z,18.77
2023-01-29T12:31:33.880Z,18.13
2023-01-29T12:34:10.257Z,19.07
2023-01-29T12:36:44.136Z,20.20
2023-01-29T12:39:16.399Z,18.93
2023-01-29T12:41:49.221Z,18.40
2023-01-29T12:44:21.534Z,19.17
2023-01-29T12:46:54.142Z,18.23
2023-01-29T12:49:25.903Z,18.80
2023-01-29T12:51:59.303Z,18.83
2023-01-29T12:54:36.222Z,18.10
2023-01-29T12:57:09.992Z,19.23
2023-01-29T12:59:44.402Z,19.70
2023-01-29T13:02:24.695Z,18.63
2023-01-29T13:05:00.405Z,18.87
2023-01-29T13:07:34.305Z,19.37
2023-01-29T13:10:10.852Z,18.97
2023-01-29T13:12:40.932Z,19.67
2023-01-29T13:15:21.589Z,18.50
2023-01-29T13:17:55.495Z,18.73
2023-01-29T13:20:29.967Z,20.87
2023-01-29T13:23:17.025Z,20.60
2023-01-29T13:25:45.325Z,19.40
2023-01-29T13:28:19.388Z,20.40
2023-01-29T13:30:48.423Z,21.33
2023-01-29T13:33:24.855Z,20.70
2023-01-29T13:36:00.388Z,20.93
2023-01-29T13:38:32.354Z,20.47
2023-01-29T13:41:04.652Z,19.73
2023-01-29T13:43:38.856Z,20.57
2023-01-29T13:46:12.144Z,20.63
2023-01-29T13:48:46.758Z,20.50
2023-01-29T13:51:20.197Z,19.70
2023-01-29T13:53:55.866Z,19.90
2023-01-29T13:56:42.831Z,20.20
2023-01-29T13:59:23.884Z,20.63
2023-01-29T14:02:23.373Z,20.33
2023-01-29T14:04:53.376Z,19.97
2023-01-29T14:07:52.101Z,21.07
2023-01-29T14:10:22.395Z,19.83
2023-01-29T14:12:53.378Z,20.97
2023-01-29T14:15:27.320Z,21.33
2023-01-29T14:18:14.535Z,19.10
2023-01-29T14:21:03.831Z,20.07
2023-01-29T14:23:41.196Z,20.37
2023-01-29T14:26:27.201Z,20.10
2023-01-29T14:29:01.061Z,19.57
2023-01-29T14:31:38.554Z,19.73
2023-01-29T14:34:16.426Z,20.27
2023-01-29T14:36:48.102Z,19.60
2023-01-29T14:39:29.320Z,19.13
2023-01-29T14:41:58.625Z,19.63
2023-01-29T14:44:50.167Z,20.97
2023-01-29T14:47:20.857Z,21.00
2023-01-29T14:49:54.238Z,20.97
2023-01-29T14:52:28.052Z,20.93
2023-01-29T14:55:01.396Z,20.60
2023-01-29T14:57:31.361Z,20.47
2023-01-29T15:00:02.240Z,19.83
2023-01-29T15:02:39.184Z,20.57
2023-01-29T15:05:12.442Z,20.77
2023-01-29T15:07:50.034Z,19.33
2023-01-29T15:10:23.335Z,21.33
2023-01-29T15:12:58.278Z,20.10
2023-01-29T15:15:35.981Z,19.83
2023-01-29T15:18:09.388Z,19.20
2023-01-29T15:20:40.040Z,20.20
2023-01-29T15:23:28.721Z,19.90
2023-01-29T15:25:59.198Z,19.70
2023-01-29T15:28:30.900Z,19.23
2023-01-29T15:31:01.412Z,19.90
2023-01-29T15:33:30.221Z,19.80
2023-01-29T15:36:08.419Z,19.90
2023-01-29T15:38:38.433Z,18.47
2023-01-29T15:41:19.228Z,18.80
2023-01-29T15:43:48.788Z,18.93
2023-01-29T15:46:23.766Z,19.33
2023-01-29T15:48:53.854Z,19.13
2023-01-29T15:51:23.737Z,19.07
2023-01-29T15:53:56.087Z,18.73
2023-01-29T15:56:29.377Z,19.67
2023-01-29T15:58:59.744Z,20.33
2023-01-29T16:01:29.133Z,18.83
2023-01-29T16:04:01.207Z,19.57
2023-01-29T16:06:35.012Z,19.83
2023-01-29T16:09:06.554Z,20.20
2023-01-29T16:11:36.372Z,19.30
2023-01-29T16:14:06.380Z,19.57
2023-01-29T16:16:34.909Z,18.70
2023-01-29T16:19:14.225Z,18.53
2023-01-29T16:21:46.168Z,18.20
2023-01-29T16:24:22.302Z,20.10
2023-01-29T16:26:53.269Z,18.20
2023-01-29T16:29:25.236Z,18.83
2023-01-29T16:32:00.675Z,17.93
2023-01-29T16:34:32.937Z,18.13
2023-01-29T16:37:02.982Z,17.73
2023-01-29T16:39:36.024Z,18.00
2023-01-29T16:42:23.237Z,17.23
2023-01-29T16:44:57.153Z,17.20
2023-01-29T16:47:29.639Z,17.90
2023-01-29T16:50:00.664Z,16.87
2023-01-29T16:52:32.340Z,16.90
2023-01-29T16:55:16.898Z,17.50
2023-01-29T16:57:48.865Z,17.43
2023-01-29T17:00:23.022Z,16.93
2023-01-29T17:02:54.129Z,17.07
2023-01-29T17:05:27.311Z,17.37
2023-01-29T17:07:58.652Z,16.77
2023-01-29T17:10:30.315Z,16.47
2023-01-29T17:13:02.141Z,16.80
2023-01-29T17:15:45.068Z,16.60
2023-01-29T17:18:19.334Z,16.87
2023-01-29T17:20:47.802Z,16.73
2023-01-29T17:23:16.070Z,16.17
2023-01-29T17:25:46.267Z,16.70
2023-01-29T17:28:16.184Z,17.03
2023-01-29T17:30:56.600Z,17.33
2023-01-29T17:33:28.952Z,16.63
2023-01-29T17:35:57.605Z,16.77
2023-01-29T17:38:27.141Z,16.40
2023-01-29T17:40:59.299Z,16.23
2023-01-29T17:43:27.744Z,16.80
2023-01-29T17:45:56.531Z,15.77
2023-01-29T17:48:26.880Z,14.77
2023-01-29T17:50:57.666Z,16.63
2023-01-29T17:53:30.548Z,15.83
2023-01-29T17:56:02.807Z,16.20
2023-01-29T17:58:30.943Z,16.27
2023-01-29T18:00:59.285Z,15.40
2023-01-29T18:03:27.799Z,16.80
2023-01-29T18:05:56.237Z,16.83
2023-01-29T18:08:30.775Z,16.73
2023-01-29T18:10:59.262Z,16.67
2023-01-29T18:13:29.390Z,17.40
2023-01-29T18:15:57.667Z,16.90
2023-01-29T18:18:26.377Z,17.60
2023-01-29T18:20:54.355Z,17.17
2023-01-29T18:23:22.802Z,18.77
2023-01-29T18:25:52.797Z,18.47
2023-01-29T18:28:21.124Z,19.23
2023-01-29T18:30:51.221Z,19.57
2023-01-29T18:33:20.008Z,19.10
2023-01-29T18:35:49.225Z,19.70
2023-01-29T18:38:18.091Z,19.57
2023-01-29T18:40:46.442Z,20.07
2023-01-29T18:43:15.443Z,19.80
2023-01-29T18:45:44.355Z,20.03
2023-01-29T18:48:14.164Z,21.23
2023-01-29T18:50:42.435Z,20.47
2023-01-29T18:53:11.085Z,20.73
2023-01-29T18:55:39.298Z,20.17
2023-01-29T18:58:26.938Z,21.50
2023-01-29T19:00:55.954Z,19.93
2023-01-29T19:03:25.701Z,20.60
2023-01-29T19:05:54.019Z,19.47
2023-01-29T19:08:22.269Z,20.17
2023-01-29T19:10:50.510Z,20.73
2023-01-29T19:13:18.679Z,19.23
2023-01-29T19:15:48.162Z,20.37
2023-01-29T19:18:16.495Z,20.63
2023-01-29T19:20:46.013Z,19.80
2023-01-29T19:23:14.188Z,21.03
2023-01-29T19:25:42.549Z,20.97
2023-01-29T19:28:10.920Z,20.03
2023-01-29T19:30:39.535Z,21.63
2023-01-29T19:33:07.972Z,19.10
2023-01-29T19:35:36.428Z,20.17
2023-01-29T19:38:06.340Z,20.77
2023-01-29T19:40:34.807Z,21.03
2023-01-29T19:43:03.249Z,20.50
2023-01-29T19:45:43.105Z,20.67
2023-01-29T19:48:20.298Z,20.10
2023-01-29T19:50:53.525Z,20.07
2023-01-29T19:53:24.086Z,19.97
2023-01-29T19:55:59.018Z,19.63
2023-01-29T19:58:27.531Z,18.60
2023-01-29T20:00:57.506Z,19.23
2023-01-29T20:03:26.720Z,19.27
2023-01-29T20:05:54.922Z,19.57
2023-01-29T20:08:25.018Z,18.70
2023-01-29T20:10:53.435Z,19.07
2023-01-29T20:13:21.661Z,18.83
2023-01-29T20:15:51.406Z,20.30
2023-01-29T20:18:20.163Z,20.03
2023-01-29T20:20:50.062Z,20.23
2023-01-29T20:23:31.727Z,19.00
2023-01-29T20:26:06.519Z,20.27
2023-01-29T20:28:36.110Z,20.43
2023-01-29T20:31:05.691Z,19.67
2023-01-29T20:33:34.741Z,19.17
2023-01-29T20:36:06.350Z,18.53
2023-01-29T20:38:34.781Z,20.60
2023-01-29T20:41:09.762Z,19.30
2023-01-29T20:43:38.101Z,19.50
2023-01-29T20:46:06.669Z,19.23
2023-01-29T20:48:35.291Z,20.33
2023-01-29T20:51:09.250Z,18.47
2023-01-29T20:53:37.843Z,18.40
2023-01-29T20:56:08.427Z,19.13
2023-01-29T20:58:37.653Z,18.70
2023-01-29T21:01:09.014Z,19.23
2023-01-29T21:03:37.313Z,18.37
2023-01-29T21:06:06.072Z,20.07
2023-01-29T21:08:35.257Z,19.43
2023-01-29T21:11:03.587Z,19.00
2023-01-29T21:13:33.608Z,19.03
2023-01-29T21:16:02.229Z,19.07
2023-01-29T21:18:30.480Z,20.63
2023-01-29T21:20:58.792Z,19.83
2023-01-29T21:23:26.971Z,18.30
2023-01-29T21:25:55.204Z,19.50
2023-01-29T21:28:23.263Z,19.60
2023-01-29T21:31:02.645Z,20.27
2023-01-29T21:33:30.982Z,19.83
2023-01-29T21:35:59.647Z,19.47
2023-01-29T21:38:28.041Z,20.47
2023-01-29T21:41:01.131Z,19.60
2023-01-29T21:43:28.424Z,19.50
2023-01-29T21:46:00.363Z,22.00
2023-01-29T21:48:29.070Z,21.13
2023-01-29T21:50:57.281Z,20.63
2023-01-29T21:53:25.453Z,21.43
2023-01-29T21:55:53.673Z,21.70
2023-01-29T21:58:21.994Z,20.53
2023-01-29T22:00:50.620Z,21.93
2023-01-29T22:03:20.210Z,21.43
2023-01-29T22:05:50.088Z,20.73
2023-01-29T22:08:18.897Z,20.70
2023-01-29T22:10:47.596Z,22.43
2023-01-29T22:13:16.341Z,21.67
2023-01-29T22:15:44.729Z,20.30
2023-01-29T22:18:12.921Z,21.87
2023-01-29T22:20:42.525Z,21.53
2023-01-29T22:23:12.456Z,22.13
2023-01-29T22:25:40.965Z,22.13
2023-01-29T22:28:09.073Z,21.10
2023-01-29T22:30:37.721Z,21.03
2023-01-29T22:33:06.062Z,21.00
2023-01-29T22:35:34.644Z,21.80
2023-01-29T22:38:04.714Z,21.40
2023-01-29T22:40:32.991Z,21.27
2023-01-29T22:43:01.377Z,21.20
2023-01-29T22:45:29.896Z,21.77
2023-01-29T22:47:58.227Z,22.77
2023-01-29T22:50:26.413Z,21.30
2023-01-29T22:52:54.660Z,20.97
2023-01-29T22:55:24.149Z,20.37
2023-01-29T22:57:53.423Z,21.10
2023-01-29T23:00:22.465Z,20.97
2023-01-29T23:02:51.204Z,22.23
2023-01-29T23:05:20.077Z,21.27
2023-01-29T23:07:48.614Z,21.40
2023-01-29T23:10:17.806Z,21.00
2023-01-29T23:12:47.650Z,21.33
2023-01-29T23:15:15.858Z,21.27
2023-01-29T23:17:45.199Z,21.17
2023-01-29T23:20:13.965Z,20.77
2023-01-29T23:22:42.012Z,20.23
2023-01-29T23:25:10.957Z,21.63
2023-01-29T23:27:38.217Z,21.10
2023-01-29T23:30:09.446Z,19.83
2023-01-29T23:32:37.861Z,20.77
2023-01-29T23:35:06.501Z,20.30
2023-01-29T23:37:35.044Z,21.07
2023-01-29T23:40:03.069Z,19.83
2023-01-29T23:42:31.351Z,20.30
2023-01-29T23:44:59.556Z,19.17
2023-01-29T23:47:29.133Z,20.57
2023-01-29T23:49:57.335Z,20.23
2023-01-29T23:52:25.567Z,20.13
2023-01-29T23:54:53.739Z,19.33
2023-01-29T23:57:22.097Z,19.77
2023-01-29T23:59:50.483Z,19.17
